createdAt,value
2018-01-13T00:01:45.901Z,47.00
2018-01-13T00:04:12.273Z,47.30
2018-01-13T00:06:38.667Z,44.33
2018-01-13T00:09:04.982Z,42.30
2018-01-13T00:11:32.178Z,43.70
2018-01-13T00:13:59.357Z,50.00
2018-01-13T00:16:25.696Z,51.10
2018-01-13T00:18:52.020Z,45.63
2018-01-13T00:21:18.358Z,46.53
2018-01-13T00:23:44.880Z,47.43
2018-01-13T00:26:11.239Z,52.40
2018-01-13T00:28:37.624Z,50.27
2018-01-13T00:31:04.306Z,47.97
2018-01-13T00:33:30.646Z,50.00
2018-01-13T00:35:57.051Z,51.17
2018-01-13T00:38:24.168Z,50.37
2018-01-13T00:40:51.295Z,55.10
2018-01-13T00:43:17.799Z,55.37
2018-01-13T00:45:44.163Z,53.80
2018-01-13T00:48:10.487Z,51.43
2018-01-13T00:50:36.834Z,53.03
2018-01-13T00:53:03.572Z,51.00
2018-01-13T00:55:30.738Z,53.10
2018-01-13T00:57:57.097Z,55.50
2018-01-13T01:00:23.446Z,54.57
2018-01-13T01:02:49.779Z,51.90
2018-01-13T01:05:16.145Z,56.07
2018-01-13T01:07:43.299Z,54.67
2018-01-13T01:10:09.640Z,54.70
2018-01-13T01:12:36.820Z,52.60
2018-01-13T01:15:04.115Z,51.90
2018-01-13T01:17:30.455Z,52.30
2018-01-13T01:19:56.791Z,55.80
2018-01-13T01:22:23.895Z,51.93
2018-01-13T01:24:50.244Z,49.83
2018-01-13T01:27:16.603Z,54.33
2018-01-13T01:29:42.943Z,49.80
2018-01-13T01:32:09.283Z,53.90
2018-01-13T01:34:35.627Z,53.90
2018-01-13T01:37:01.967Z,52.83
2018-01-13T01:39:28.356Z,55.97
2018-01-13T01:41:54.749Z,55.83
2018-01-13T01:44:21.111Z,57.40
2018-01-13T01:46:47.431Z,60.70
2018-01-13T01:49:14.559Z,57.33
2018-01-13T01:51:40.966Z,55.97
2018-01-13T01:54:08.049Z,57.90
2018-01-13T01:56:34.427Z,53.33
2018-01-13T01:59:00.811Z,51.97
2018-01-13T02:01:27.227Z,56.10
2018-01-13T02:03:53.567Z,56.50
2018-01-13T02:06:19.931Z,57.50
2018-01-13T02:08:47.019Z,56.70
2018-01-13T02:11:13.422Z,57.87
2018-01-13T02:13:39.759Z,59.93
2018-01-13T02:16:06.252Z,56.93
2018-01-13T02:18:32.671Z,58.53
2018-01-13T02:20:59.019Z,52.60
2018-01-13T02:23:25.369Z,56.47
2018-01-13T02:25:51.715Z,61.23
2018-01-13T02:28:18.795Z,57.17
2018-01-13T02:30:45.143Z,53.40
2018-01-13T02:33:11.495Z,52.07
2018-01-13T02:35:37.859Z,52.90
2018-01-13T02:38:04.880Z,51.77
2018-01-13T02:40:31.364Z,53.20
2018-01-13T02:42:57.912Z,57.13
2018-01-13T02:45:24.268Z,50.20
2018-01-13T02:47:50.614Z,49.47
2018-01-13T02:50:16.959Z,49.57
2018-01-13T02:52:44.047Z,49.00
2018-01-13T02:55:10.403Z,53.37
2018-01-13T02:57:36.779Z,51.43
2018-01-13T03:00:03.620Z,50.90
2018-01-13T03:02:29.990Z,49.43
2018-01-13T03:04:56.425Z,53.47
2018-01-13T03:07:23.569Z,52.40
2018-01-13T03:09:49.960Z,50.10
2018-01-13T03:12:17.109Z,53.03
2018-01-13T03:14:43.477Z,48.57
2018-01-13T03:17:09.817Z,51.87
2018-01-13T03:19:36.207Z,50.60
2018-01-13T03:22:02.885Z,50.13
2018-01-13T03:24:29.382Z,52.17
2018-01-13T03:26:55.744Z,53.77
2018-01-13T03:29:22.087Z,57.93
2018-01-13T03:31:48.462Z,53.90
2018-01-13T03:34:14.807Z,44.57
2018-01-13T03:36:41.167Z,55.30
2018-01-13T03:39:08.251Z,51.87
2018-01-13T03:41:34.674Z,54.60
2018-01-13T03:44:01.860Z,47.43
2018-01-13T03:46:28.296Z,49.37
2018-01-13T03:48:55.363Z,51.50
2018-01-13T03:51:21.679Z,49.63
2018-01-13T03:53:48.011Z,47.30
2018-01-13T03:56:14.323Z,47.97
2018-01-13T03:58:40.685Z,48.50
2018-01-13T04:01:07.015Z,42.67
2018-01-13T04:03:33.387Z,44.80
2018-01-13T04:05:59.768Z,51.00
2018-01-13T04:08:26.183Z,42.50
2018-01-13T04:10:53.261Z,46.87
2018-01-13T04:13:20.323Z,47.97
2018-01-13T04:15:47.419Z,46.37
2018-01-13T04:18:13.777Z,46.27
2018-01-13T04:20:40.139Z,40.60
2018-01-13T04:23:07.228Z,42.60
2018-01-13T04:25:33.600Z,46.00
2018-01-13T04:27:59.931Z,35.77
2018-01-13T04:30:26.934Z,42.70
2018-01-13T04:32:53.250Z,47.40
2018-01-13T04:35:19.624Z,44.87
2018-01-13T04:37:46.050Z,45.10
2018-01-13T04:40:12.408Z,43.10
2018-01-13T04:42:38.787Z,49.57
2018-01-13T04:45:05.903Z,45.50
2018-01-13T04:47:32.271Z,44.70
2018-01-13T04:49:59.356Z,49.77
2018-01-13T04:52:26.448Z,44.07
2018-01-13T04:54:52.783Z,47.20
2018-01-13T04:57:19.135Z,43.90
2018-01-13T04:59:45.494Z,48.10
2018-01-13T05:02:11.875Z,44.80
2018-01-13T05:04:38.963Z,46.27
2018-01-13T05:07:05.347Z,46.73
2018-01-13T05:09:31.682Z,43.97
2018-01-13T05:11:58.055Z,51.70
2018-01-13T05:14:24.451Z,47.63
2018-01-13T05:16:50.796Z,46.63
2018-01-13T05:19:17.151Z,44.00
2018-01-13T05:21:43.491Z,48.13
2018-01-13T05:24:10.591Z,40.17
2018-01-13T05:26:37.740Z,49.90
2018-01-13T05:29:04.388Z,50.27
2018-01-13T05:31:30.714Z,49.57
2018-01-13T05:33:57.082Z,46.03
2018-01-13T05:36:23.431Z,50.47
2018-01-13T05:38:49.807Z,43.50
2018-01-13T05:41:16.204Z,44.77
2018-01-13T05:43:43.302Z,45.67
2018-01-13T05:46:09.657Z,44.43
2018-01-13T05:48:35.995Z,47.37
2018-01-13T05:51:02.355Z,50.37
2018-01-13T05:53:28.639Z,51.13
2018-01-13T05:55:55.728Z,48.30
2018-01-13T05:58:22.059Z,47.93
2018-01-13T06:00:49.203Z,48.27
2018-01-13T06:03:16.299Z,44.37
2018-01-13T06:05:42.618Z,37.07
2018-01-13T06:08:08.952Z,44.43
2018-01-13T06:10:36.100Z,45.07
2018-01-13T06:13:02.509Z,42.33
2018-01-13T06:15:28.855Z,40.70
2018-01-13T06:17:55.259Z,41.37
2018-01-13T06:20:21.599Z,41.27
2018-01-13T06:22:47.985Z,40.23
2018-01-13T06:25:14.493Z,44.40
2018-01-13T06:27:40.848Z,40.63
2018-01-13T06:30:07.224Z,35.90
2018-01-13T06:32:33.584Z,35.80
2018-01-13T06:35:00.943Z,37.20
2018-01-13T06:37:27.283Z,41.57
2018-01-13T06:39:53.671Z,38.73
2018-01-13T06:42:20.099Z,38.53
2018-01-13T06:44:47.208Z,39.67
2018-01-13T06:47:13.561Z,34.63
2018-01-13T06:49:39.956Z,41.23
2018-01-13T06:52:07.027Z,39.63
2018-01-13T06:54:34.168Z,37.77
2018-01-13T06:57:00.859Z,37.70
2018-01-13T06:59:28.262Z,38.40
2018-01-13T07:01:56.700Z,40.67
2018-01-13T07:04:23.246Z,37.10
2018-01-13T07:06:49.936Z,38.87
2018-01-13T07:09:18.203Z,43.37
2018-01-13T07:11:44.891Z,46.77
2018-01-13T07:14:11.575Z,47.50
2018-01-13T07:16:38.240Z,46.40
2018-01-13T07:19:05.687Z,45.57
2018-01-13T07:21:32.402Z,42.20
2018-01-13T07:23:59.506Z,47.33
2018-01-13T07:26:27.820Z,43.87
2018-01-13T07:28:54.631Z,46.17
2018-01-13T07:31:21.291Z,42.27
2018-01-13T07:33:49.598Z,40.00
2018-01-13T07:36:17.324Z,44.07
2018-01-13T07:38:44.031Z,48.03
2018-01-13T07:41:10.615Z,44.97
2018-01-13T07:43:37.971Z,41.20
2018-01-13T07:46:05.038Z,40.57
2018-01-13T07:48:31.638Z,43.47
2018-01-13T07:50:58.552Z,40.40
2018-01-13T07:53:25.257Z,40.60
2018-01-13T07:55:53.810Z,39.60
2018-01-13T07:58:21.804Z,40.73
2018-01-13T08:00:49.265Z,36.30
2018-01-13T08:03:16.309Z,36.20
2018-01-13T08:05:44.120Z,36.17
2018-01-13T08:08:11.201Z,36.53
2018-01-13T08:10:39.195Z,36.57
2018-01-13T08:13:06.644Z,34.00
2018-01-13T08:15:33.220Z,36.77
2018-01-13T08:17:59.748Z,36.07
2018-01-13T08:20:28.199Z,37.53
2018-01-13T08:22:55.605Z,34.67
2018-01-13T08:25:22.407Z,33.37
2018-01-13T08:27:49.579Z,29.40
2018-01-13T08:30:16.051Z,29.80
2018-01-13T08:32:42.534Z,29.10
2018-01-13T08:35:12.317Z,27.53
2018-01-13T08:37:38.825Z,28.97
2018-01-13T08:40:05.754Z,25.17
2018-01-13T08:42:32.328Z,23.87
2018-01-13T08:44:59.679Z,23.43
2018-01-13T08:47:27.309Z,22.77
2018-01-13T08:49:53.941Z,23.53
2018-01-13T08:52:20.511Z,20.53
2018-01-13T08:54:47.868Z,19.27
2018-01-13T08:57:14.463Z,17.90
2018-01-13T08:59:41.096Z,17.57
2018-01-13T09:02:07.897Z,16.13
2018-01-13T09:04:35.230Z,16.93
2018-01-13T09:07:01.814Z,17.60
2018-01-13T09:09:29.050Z,16.27
2018-01-13T09:11:56.907Z,15.13
2018-01-13T09:14:24.140Z,17.33
2018-01-13T09:16:50.842Z,17.03
2018-01-13T09:19:18.049Z,17.10
2018-01-13T09:21:45.251Z,14.60
2018-01-13T09:24:12.590Z,15.10
2018-01-13T09:26:39.824Z,16.13
2018-01-13T09:29:06.678Z,16.17
2018-01-13T09:31:34.051Z,14.70
2018-01-13T09:34:00.750Z,15.50
2018-01-13T09:36:28.312Z,13.83
2018-01-13T09:38:55.123Z,14.77
2018-01-13T09:41:22.419Z,14.47
2018-01-13T09:43:49.801Z,15.20
2018-01-13T09:46:17.833Z,14.57
2018-01-13T09:48:46.048Z,16.17
2018-01-13T09:51:13.371Z,16.63
2018-01-13T09:53:40.809Z,14.87
2018-01-13T09:56:10.299Z,12.60
2018-01-13T09:58:37.441Z,15.17
2018-01-13T10:01:04.010Z,14.57
2018-01-13T10:03:31.232Z,15.03
2018-01-13T10:05:57.753Z,14.40
2018-01-13T10:08:24.899Z,15.67
2018-01-13T10:10:51.567Z,15.70
2018-01-13T10:13:18.278Z,14.93
2018-01-13T10:15:45.962Z,14.83
2018-01-13T10:18:13.324Z,15.30
2018-01-13T10:20:40.182Z,12.67
2018-01-13T10:23:08.019Z,15.03
2018-01-13T10:25:35.419Z,15.87
2018-01-13T10:28:02.014Z,16.50
2018-01-13T10:30:28.567Z,14.10
2018-01-13T10:32:55.071Z,13.80
2018-01-13T10:35:23.173Z,14.30
2018-01-13T10:37:49.715Z,15.70
2018-01-13T10:40:16.222Z,14.37
2018-01-13T10:42:42.728Z,15.13
2018-01-13T10:45:09.207Z,17.80
2018-01-13T10:47:35.743Z,15.47
2018-01-13T10:50:02.483Z,14.07
2018-01-13T10:52:29.033Z,15.10
2018-01-13T10:54:55.621Z,15.50
2018-01-13T10:57:22.167Z,16.20
2018-01-13T10:59:49.705Z,14.30
2018-01-13T11:02:16.298Z,13.93
2018-01-13T11:04:42.716Z,13.80
2018-01-13T11:07:09.218Z,14.17
2018-01-13T11:09:36.544Z,13.23
2018-01-13T11:12:03.516Z,13.43
2018-01-13T11:14:30.165Z,13.70
2018-01-13T11:16:56.684Z,13.13
2018-01-13T11:19:24.255Z,16.00
2018-01-13T11:21:50.891Z,12.53
2018-01-13T11:24:18.065Z,10.90
2018-01-13T11:26:44.855Z,10.27
2018-01-13T11:29:11.316Z,10.63
2018-01-13T11:31:37.768Z,10.03
2018-01-13T11:34:04.679Z,8.93
2018-01-13T11:36:32.030Z,9.63
2018-01-13T11:38:59.528Z,10.47
2018-01-13T11:41:26.674Z,8.33
2018-01-13T11:43:53.892Z,8.43
2018-01-13T11:46:22.068Z,9.40
2018-01-13T11:48:50.557Z,8.17
2018-01-13T11:51:17.114Z,8.83
2018-01-13T11:53:44.325Z,10.00
2018-01-13T11:56:11.875Z,8.87
2018-01-13T11:58:38.431Z,8.50
2018-01-13T12:01:05.209Z,9.10
2018-01-13T12:03:31.700Z,10.50
2018-01-13T12:05:58.262Z,10.10
2018-01-13T12:08:24.823Z,9.43
2018-01-13T12:10:52.142Z,7.20
2018-01-13T12:13:18.684Z,7.90
2018-01-13T12:15:46.017Z,8.03
2018-01-13T12:18:12.929Z,10.93
2018-01-13T12:20:43.363Z,9.00
2018-01-13T12:23:10.018Z,8.47
2018-01-13T12:25:38.774Z,9.20
2018-01-13T12:28:05.713Z,8.30
2018-01-13T12:30:33.199Z,8.30
2018-01-13T12:33:00.891Z,9.67
2018-01-13T12:35:28.580Z,9.57
2018-01-13T12:37:56.601Z,10.07
2018-01-13T12:40:23.928Z,9.00
2018-01-13T12:42:51.326Z,9.77
2018-01-13T12:45:18.585Z,8.40
2018-01-13T12:47:46.019Z,10.70
2018-01-13T12:50:13.336Z,10.90
2018-01-13T12:52:40.220Z,10.50
2018-01-13T12:55:07.726Z,8.10
2018-01-13T12:57:34.398Z,8.70
2018-01-13T13:00:01.985Z,8.70
2018-01-13T13:02:29.332Z,8.30
2018-01-13T13:04:56.656Z,9.43
2018-01-13T13:07:23.801Z,11.60
2018-01-13T13:09:50.481Z,9.80
2018-01-13T13:12:17.571Z,10.37
2018-01-13T13:14:44.804Z,10.60
2018-01-13T13:17:11.418Z,10.20
2018-01-13T13:19:38.704Z,9.00
2018-01-13T13:22:07.113Z,9.10
2018-01-13T13:24:34.728Z,8.30
2018-01-13T13:27:01.829Z,9.20
2018-01-13T13:29:28.673Z,9.97
2018-01-13T13:31:55.249Z,11.17
2018-01-13T13:34:22.644Z,8.27
2018-01-13T13:36:49.336Z,8.40
2018-01-13T13:39:15.818Z,7.47
2018-01-13T13:41:42.316Z,9.13
2018-01-13T13:44:10.320Z,9.60
2018-01-13T13:46:36.968Z,9.07
2018-01-13T13:49:04.636Z,9.70
2018-01-13T13:51:31.194Z,8.20
2018-01-13T13:53:58.428Z,9.67
2018-01-13T13:56:25.434Z,9.87
2018-01-13T13:58:59.040Z,9.63
2018-01-13T14:01:28.779Z,11.00
2018-01-13T14:03:53.137Z,10.00
2018-01-13T14:06:19.769Z,9.10
2018-01-13T14:08:47.565Z,8.80
2018-01-13T14:11:14.763Z,9.40
2018-01-13T14:13:42.126Z,9.80
2018-01-13T14:16:10.186Z,9.20
2018-01-13T14:18:37.642Z,7.87
2018-01-13T14:21:06.410Z,8.70
2018-01-13T14:23:34.151Z,7.47
2018-01-13T14:26:01.758Z,9.10
2018-01-13T14:28:28.642Z,10.07
2018-01-13T14:30:56.276Z,8.63
2018-01-13T14:33:22.935Z,7.57
2018-01-13T14:35:50.147Z,7.30
2018-01-13T14:38:16.960Z,7.67
2018-01-13T14:40:43.614Z,9.40
2018-01-13T14:43:10.988Z,8.33
2018-01-13T14:45:39.055Z,8.67
2018-01-13T14:48:10.087Z,8.43
2018-01-13T14:50:37.851Z,8.80
2018-01-13T14:53:05.328Z,8.40
2018-01-13T14:55:32.012Z,8.60
2018-01-13T14:57:58.578Z,8.50
2018-01-13T15:00:25.260Z,9.67
2018-01-13T15:02:53.208Z,8.03
2018-01-13T15:05:20.548Z,9.70
2018-01-13T15:07:47.124Z,8.60
2018-01-13T15:10:14.968Z,10.07
2018-01-13T15:12:41.591Z,8.80
2018-01-13T15:15:08.111Z,8.30
2018-01-13T15:17:35.393Z,9.43
2018-01-13T15:20:02.701Z,8.50
2018-01-13T15:22:29.305Z,8.80
2018-01-13T15:24:55.759Z,7.93
2018-01-13T15:27:22.231Z,8.67
2018-01-13T15:29:49.465Z,8.67
2018-01-13T15:32:16.126Z,9.13
2018-01-13T15:34:43.391Z,9.70
2018-01-13T15:37:10.137Z,8.43
2018-01-13T15:39:36.723Z,10.27
2018-01-13T15:42:03.414Z,8.37
2018-01-13T15:44:30.810Z,8.50
2018-01-13T15:46:57.958Z,8.53
2018-01-13T15:49:24.759Z,7.47
2018-01-13T15:51:52.043Z,9.73
2018-01-13T15:54:18.695Z,9.60
2018-01-13T15:56:45.199Z,9.23
2018-01-13T15:59:13.137Z,9.50
2018-01-13T16:01:39.961Z,9.73
2018-01-13T16:04:06.856Z,8.67
2018-01-13T16:06:33.557Z,9.67
2018-01-13T16:09:00.467Z,9.10
2018-01-13T16:11:27.352Z,9.53
2018-01-13T16:13:54.110Z,8.80
2018-01-13T16:16:21.291Z,9.60
2018-01-13T16:18:48.601Z,9.43
2018-01-13T16:21:15.239Z,9.50
2018-01-13T16:23:45.179Z,9.53
2018-01-13T16:26:12.027Z,8.20
2018-01-13T16:28:39.227Z,8.33
2018-01-13T16:31:05.681Z,9.97
2018-01-13T16:33:32.116Z,9.60
2018-01-13T16:35:58.493Z,8.93
2018-01-13T16:38:24.875Z,10.30
2018-01-13T16:40:51.297Z,9.03
2018-01-13T16:43:17.647Z,10.07
2018-01-13T16:45:44.130Z,10.03
2018-01-13T16:48:11.302Z,10.70
2018-01-13T16:50:38.414Z,9.77
2018-01-13T16:53:05.615Z,10.07
2018-01-13T16:55:32.040Z,10.97
2018-01-13T16:57:59.140Z,9.27
2018-01-13T17:00:25.491Z,10.53
2018-01-13T17:02:52.627Z,9.10
2018-01-13T17:05:18.983Z,10.37
2018-01-13T17:07:46.107Z,11.23
2018-01-13T17:10:12.531Z,11.30
2018-01-13T17:12:38.891Z,10.97
2018-01-13T17:15:05.416Z,11.50
2018-01-13T17:17:31.864Z,12.23
2018-01-13T17:19:58.295Z,10.40
2018-01-13T17:22:24.693Z,12.07
2018-01-13T17:24:51.382Z,10.23
2018-01-13T17:27:17.777Z,11.03
2018-01-13T17:29:44.267Z,10.87
2018-01-13T17:32:10.670Z,12.43
2018-01-13T17:34:37.776Z,12.63
2018-01-13T17:37:04.665Z,11.83
2018-01-13T17:39:31.787Z,12.27
2018-01-13T17:41:58.333Z,14.93
2018-01-13T17:44:25.581Z,14.07
2018-01-13T17:46:52.450Z,13.07
2018-01-13T17:49:18.871Z,11.80
2018-01-13T17:51:45.299Z,12.50
2018-01-13T17:54:11.767Z,12.40
2018-01-13T17:56:38.183Z,11.83
2018-01-13T17:59:05.291Z,11.97
2018-01-13T18:01:42.335Z,9.53
2018-01-13T18:04:09.528Z,11.57
2018-01-13T18:06:35.970Z,12.37
2018-01-13T18:09:02.511Z,12.27
2018-01-13T18:11:29.656Z,12.90
2018-01-13T18:13:56.030Z,13.50
2018-01-13T18:16:22.659Z,13.03
2018-01-13T18:18:49.111Z,13.20
2018-01-13T18:21:15.577Z,11.33
2018-01-13T18:23:41.967Z,13.90
2018-01-13T18:26:09.093Z,12.00
2018-01-13T18:28:35.415Z,11.37
2018-01-13T18:31:01.845Z,13.90
2018-01-13T18:33:28.439Z,13.13
2018-01-13T18:35:54.811Z,14.63
2018-01-13T18:38:21.871Z,14.03
2018-01-13T18:40:48.219Z,13.70
2018-01-13T18:43:14.600Z,11.93
2018-01-13T18:45:41.637Z,11.90
2018-01-13T18:48:08.019Z,13.97
2018-01-13T18:50:34.419Z,12.23
2018-01-13T18:53:00.806Z,12.93
2018-01-13T18:55:27.265Z,13.43
2018-01-13T18:57:53.671Z,12.97
2018-01-13T19:00:20.040Z,13.27
2018-01-13T19:02:46.378Z,12.93
2018-01-13T19:05:12.760Z,13.00
2018-01-13T19:07:39.972Z,12.03
2018-01-13T19:10:07.279Z,12.97
2018-01-13T19:12:33.630Z,11.97
2018-01-13T19:15:00.987Z,12.17
2018-01-13T19:17:27.444Z,11.70
2018-01-13T19:20:02.422Z,13.10
2018-01-13T19:22:29.523Z,13.40
2018-01-13T19:24:55.951Z,11.90
2018-01-13T19:27:22.381Z,13.47
2018-01-13T19:29:49.038Z,12.30
2018-01-13T19:32:15.597Z,11.90
2018-01-13T19:34:42.027Z,12.03
2018-01-13T19:37:08.393Z,12.87
2018-01-13T19:39:34.810Z,12.33
2018-01-13T19:42:01.556Z,12.30
2018-01-13T19:44:28.000Z,11.30
2018-01-13T19:46:54.425Z,11.40
2018-01-13T19:49:21.586Z,13.47
2018-01-13T19:51:48.725Z,11.70
2018-01-13T19:54:15.159Z,14.53
2018-01-13T19:56:41.571Z,11.73
2018-01-13T19:59:08.706Z,13.20
2018-01-13T20:01:35.854Z,13.10
2018-01-13T20:04:02.375Z,14.03
2018-01-13T20:06:29.540Z,12.77
2018-01-13T20:08:55.926Z,13.60
2018-01-13T20:11:23.063Z,12.50
2018-01-13T20:13:49.474Z,14.23
2018-01-13T20:16:15.898Z,13.60
2018-01-13T20:18:42.342Z,13.60
2018-01-13T20:21:08.791Z,13.53
2018-01-13T20:23:35.224Z,14.93
2018-01-13T20:26:01.692Z,14.53
2018-01-13T20:28:28.055Z,12.30
2018-01-13T20:30:55.215Z,12.40
2018-01-13T20:33:21.662Z,13.10
2018-01-13T20:35:48.062Z,12.27
2018-01-13T20:38:14.503Z,12.03
2018-01-13T20:40:41.656Z,13.53
2018-01-13T20:43:08.048Z,13.37
2018-01-13T20:45:34.527Z,13.60
2018-01-13T20:48:00.936Z,13.10
2018-01-13T20:50:27.373Z,12.53
2018-01-13T20:52:53.756Z,12.77
2018-01-13T20:55:20.190Z,11.93
2018-01-13T20:57:47.425Z,12.90
2018-01-13T21:00:13.873Z,13.43
2018-01-13T21:02:40.234Z,12.27
2018-01-13T21:05:06.702Z,13.70
2018-01-13T21:07:33.872Z,14.10
2018-01-13T21:10:00.277Z,12.97
2018-01-13T21:12:27.461Z,12.00
2018-01-13T21:14:53.993Z,11.70
2018-01-13T21:17:20.397Z,13.70
2018-01-13T21:19:46.833Z,13.20
2018-01-13T21:22:13.985Z,11.87
2018-01-13T21:24:40.390Z,12.47
2018-01-13T21:27:06.848Z,12.90
2018-01-13T21:29:33.230Z,13.97
2018-01-13T21:31:59.699Z,12.50
2018-01-13T21:34:26.103Z,11.60
2018-01-13T21:36:52.471Z,11.53
2018-01-13T21:39:18.862Z,11.87
2018-01-13T21:41:46.047Z,11.73
2018-01-13T21:44:12.455Z,10.80
2018-01-13T21:46:38.851Z,11.70
2018-01-13T21:49:05.438Z,10.40
2018-01-13T21:51:31.837Z,10.40
2018-01-13T21:53:59.088Z,11.60
2018-01-13T21:56:25.451Z,11.63
2018-01-13T21:58:51.819Z,11.53
2018-01-13T22:01:18.234Z,9.77
2018-01-13T22:03:45.374Z,10.90
2018-01-13T22:06:11.723Z,9.37
2018-01-13T22:08:38.202Z,10.53
2018-01-13T22:11:05.484Z,11.70
2018-01-13T22:13:31.892Z,11.47
2018-01-13T22:16:00.070Z,10.37
2018-01-13T22:18:26.460Z,11.10
2018-01-13T22:20:52.854Z,11.97
2018-01-13T22:23:19.987Z,12.70
2018-01-13T22:25:46.403Z,11.87
2018-01-13T22:28:12.772Z,12.83
2018-01-13T22:30:39.995Z,13.10
2018-01-13T22:33:07.043Z,12.57
2018-01-13T22:35:33.474Z,12.03
2018-01-13T22:37:59.828Z,12.13
2018-01-13T22:40:26.245Z,12.37
2018-01-13T22:42:52.619Z,12.10
2018-01-13T22:45:19.009Z,13.97
2018-01-13T22:47:45.453Z,11.27
2018-01-13T22:50:11.832Z,11.53
2018-01-13T22:52:38.225Z,12.27
2018-01-13T22:55:04.683Z,12.73
2018-01-13T22:57:31.793Z,12.70
2018-01-13T22:59:58.166Z,12.73
2018-01-13T23:02:24.767Z,12.77
2018-01-13T23:04:51.121Z,11.20
2018-01-13T23:07:18.242Z,11.03
2018-01-13T23:09:44.570Z,10.27
2018-01-13T23:12:10.950Z,11.73
2018-01-13T23:14:37.338Z,11.77
2018-01-13T23:17:04.821Z,11.87
2018-01-13T23:19:31.228Z,10.20
2018-01-13T23:21:57.598Z,12.03
2018-01-13T23:24:24.713Z,10.03
2018-01-13T23:26:51.097Z,9.40
2018-01-13T23:29:17.506Z,10.80
2018-01-13T23:31:44.615Z,11.70
2018-01-13T23:34:11.022Z,9.30
2018-01-13T23:36:37.389Z,10.03
2018-01-13T23:39:05.022Z,12.00
2018-01-13T23:41:31.453Z,10.33
2018-01-13T23:43:57.804Z,11.13
2018-01-13T23:46:24.159Z,9.87
2018-01-13T23:48:50.495Z,11.30
2018-01-13T23:51:17.655Z,12.97
2018-01-13T23:53:43.998Z,10.00
2018-01-13T23:56:10.411Z,10.40
2018-01-13T23:58:36.763Z,11.13
